Time;durP1;ratioP1;P1;durP2;ratioP2;P2;SDS_P1;SDS_P2;PMS_P1;PMS_P2;Temp;Humidity;BMP_temperature;BMP_pressure;BME280_temperature;BME280_humidity;BME280_pressure;Samples;Min_cycle;Max_cycle;Signal;HPM_P1;HPM_P2
2022/11/13 00:01:54;;;;;;;36.17;21.60;;;7.20;44.40;;;;;;5060680;28;20470;-62
2022/11/13 00:04:21;;;;;;;25.40;14.83;;;7.20;44.50;;;;;;5063287;28;20457;-62
2022/11/13 00:06:47;;;;;;;21.03;12.73;;;7.20;44.60;;;;;;5059863;28;20466;-62
2022/11/13 00:09:14;;;;;;;21.10;12.77;;;7.20;44.50;;;;;;5063516;28;20507;-62
2022/11/13 00:11:42;;;;;;;38.70;13.07;;;7.30;44.70;;;;;;5059395;28;20461;-61
2022/11/13 00:14:09;;;;;;;27.57;13.20;;;7.30;44.60;;;;;;5063438;28;20460;-62
2022/11/13 00:16:36;;;;;;;43.90;12.60;;;7.30;44.50;;;;;;5062145;28;20464;-62
2022/11/13 00:19:03;;;;;;;32.20;12.33;;;7.30;44.70;;;;;;5061799;28;20481;-62
2022/11/13 00:21:29;;;;;;;17.33;11.37;;;7.30;44.30;;;;;;5058285;28;20480;-62
2022/11/13 00:23:56;;;;;;;39.93;12.93;;;7.30;44.30;;;;;;5058948;28;20457;-62
2022/11/13 00:26:25;;;;;;;23.53;12.00;;;7.30;44.30;;;;;;5062075;28;21012;-62
2022/11/13 00:28:57;;;;;;;20.20;11.60;;;7.20;44.10;;;;;;5060430;28;20481;-62
2022/11/13 00:31:25;;;;;;;27.47;12.10;;;7.20;44.30;;;;;;5057980;28;20467;-61
2022/11/13 00:33:53;;;;;;;71.70;13.50;;;7.20;44.40;;;;;;5055637;28;20464;-62
2022/11/13 00:36:21;;;;;;;15.63;11.33;;;7.20;44.10;;;;;;5055998;28;20483;-62
2022/11/13 00:38:48;;;;;;;24.20;10.63;;;7.20;44.00;;;;;;5050758;28;21099;-62
2022/11/13 00:41:15;;;;;;;18.10;11.20;;;7.20;44.10;;;;;;5062366;28;20489;-62
2022/11/13 00:43:42;;;;;;;35.13;11.37;;;7.20;44.00;;;;;;5050829;28;20860;-62
2022/11/13 00:46:11;;;;;;;19.17;10.90;;;7.20;43.90;;;;;;5057005;28;20461;-62
2022/11/13 00:48:38;;;;;;;32.93;11.43;;;7.20;43.70;;;;;;5056882;28;20468;-62
2022/11/13 00:51:05;;;;;;;30.93;10.03;;;7.20;43.50;;;;;;5057389;28;20453;-62
2022/11/13 00:53:32;;;;;;;41.07;11.73;;;7.20;43.70;;;;;;5061596;28;20465;-63
2022/11/13 00:56:00;;;;;;;63.50;12.93;;;7.10;43.40;;;;;;5061718;28;20543;-62
2022/11/13 00:58:27;;;;;;;25.70;11.17;;;7.10;43.40;;;;;;5056408;28;20539;-63
2022/11/13 01:00:53;;;;;;;21.33;10.50;;;7.10;43.40;;;;;;5056061;28;21029;-62
2022/11/13 01:03:21;;;;;;;65.17;12.77;;;7.00;43.40;;;;;;5058348;28;20468;-62
2022/11/13 01:05:48;;;;;;;37.37;12.00;;;7.00;43.60;;;;;;5059023;28;20465;-62
2022/11/13 01:08:16;;;;;;;21.90;11.20;;;7.00;43.70;;;;;;5063885;28;20488;-62
2022/11/13 01:10:46;;;;;;;31.20;11.30;;;6.90;44.00;;;;;;5055719;28;20473;-62
2022/11/13 01:13:13;;;;;;;29.40;12.13;;;6.90;44.20;;;;;;5053051;28;20873;-61
2022/11/13 01:15:40;;;;;;;23.47;11.30;;;6.90;44.30;;;;;;5058735;28;21992;-61
2022/11/13 01:18:07;;;;;;;36.90;11.40;;;6.90;44.30;;;;;;5058101;28;20456;-61
2022/11/13 01:20:35;;;;;;;17.63;11.10;;;6.90;44.50;;;;;;5057336;28;20511;-61
2022/11/13 01:23:03;;;;;;;19.23;10.40;;;6.90;44.50;;;;;;5061404;28;20968;-62
2022/11/13 01:25:31;;;;;;;19.20;11.63;;;6.90;44.50;;;;;;5063218;28;20526;-61
2022/11/13 01:27:58;;;;;;;19.33;11.00;;;6.90;44.60;;;;;;5060489;28;20457;-62
2022/11/13 01:30:25;;;;;;;23.73;10.93;;;6.90;44.60;;;;;;5056276;28;20481;-62
2022/11/13 01:32:51;;;;;;;26.47;11.80;;;6.90;44.50;;;;;;5054671;28;21005;-62
2022/11/13 01:35:18;;;;;;;16.93;10.50;;;6.90;44.40;;;;;;5056934;28;20465;-62
2022/11/13 01:37:46;;;;;;;19.00;10.03;;;6.90;44.50;;;;;;5062843;28;20473;-62
2022/11/13 01:40:14;;;;;;;58.33;12.10;;;6.90;44.40;;;;;;5062071;28;20477;-63
2022/11/13 01:42:41;;;;;;;14.87;10.40;;;6.90;44.30;;;;;;5062729;28;20468;-62
2022/11/13 01:45:43;;;;;;;25.77;12.37;;;6.90;44.30;;;;;;5057236;28;20465;-62
2022/11/13 01:48:12;;;;;;;19.10;10.20;;;6.90;44.50;;;;;;5030177;28;20481;-61
2022/11/13 01:50:39;;;;;;;16.43;10.40;;;6.90;44.50;;;;;;5059623;28;20488;-61
2022/11/13 01:53:08;;;;;;;21.93;10.43;;;6.90;44.50;;;;;;5061089;28;20457;-62
2022/11/13 01:55:35;;;;;;;19.33;11.60;;;6.90;44.60;;;;;;5058034;28;20464;-61
2022/11/13 01:58:04;;;;;;;19.17;12.00;;;6.90;44.40;;;;;;5066046;28;20510;-61
2022/11/13 02:00:31;;;;;;;28.27;11.30;;;6.90;44.40;;;;;;5058775;28;20480;-62
2022/11/13 02:02:58;;;;;;;24.73;11.40;;;6.90;44.30;;;;;;5058694;28;20557;-62
2022/11/13 02:05:24;;;;;;;13.83;9.60;;;6.90;44.30;;;;;;5060034;28;20461;-62
2022/11/13 02:07:51;;;;;;;24.73;10.70;;;6.90;44.30;;;;;;5059359;28;20461;-62
2022/11/13 02:10:19;;;;;;;19.00;11.30;;;6.90;44.40;;;;;;5063820;28;20509;-62
2022/11/13 02:12:50;;;;;;;19.20;10.10;;;6.90;44.10;;;;;;5058677;28;20476;-62
2022/11/13 02:15:18;;;;;;;16.70;10.30;;;6.90;44.10;;;;;;5062840;28;21205;-62
2022/11/13 02:17:49;;;;;;;25.20;11.50;;;6.90;44.00;;;;;;5058679;28;20816;-62
2022/11/13 02:20:17;;;;;;;19.13;9.73;;;6.90;43.90;;;;;;5060469;28;20485;-62
2022/11/13 02:22:51;;;;;;;16.40;11.20;;;6.90;43.90;;;;;;5060890;28;20457;-62
2022/11/13 02:25:20;;;;;;;24.20;10.87;;;6.90;43.90;;;;;;5065103;28;20461;-61
2022/11/13 02:27:49;;;;;;;17.03;10.97;;;6.90;44.10;;;;;;5062712;28;20457;-62
2022/11/13 02:30:19;;;;;;;44.97;12.33;;;6.90;44.00;;;;;;5063455;28;20473;-62
2022/11/13 02:32:48;;;;;;;32.10;13.33;;;6.90;43.90;;;;;;5062407;28;20465;-64
2022/11/13 02:35:17;;;;;;;21.40;11.90;;;6.90;43.90;;;;;;5061381;28;20457;-62
2022/11/13 02:37:44;;;;;;;19.10;12.27;;;6.90;44.00;;;;;;5059105;28;20468;-61
2022/11/13 02:40:11;;;;;;;21.27;12.87;;;6.90;43.90;;;;;;5058841;28;21004;-61
2022/11/13 02:42:40;;;;;;;45.47;14.20;;;6.90;43.90;;;;;;5063514;28;20926;-62
2022/11/13 02:45:07;;;;;;;14.93;9.70;;;6.90;43.90;;;;;;5065980;28;20469;-62
2022/11/13 02:47:35;;;;;;;35.50;10.83;;;6.90;43.70;;;;;;5052142;28;20462;-62
2022/11/13 02:50:01;;;;;;;20.30;11.13;;;6.90;43.70;;;;;;5058746;28;20482;-62
2022/11/13 02:52:30;;;;;;;20.73;10.73;;;6.90;43.70;;;;;;5051738;28;20484;-62
2022/11/13 02:54:57;;;;;;;21.83;11.60;;;6.80;43.50;;;;;;5062310;28;20461;-62
2022/11/13 02:57:24;;;;;;;21.27;11.63;;;6.80;43.70;;;;;;5061615;28;20465;-62
2022/11/13 02:59:52;;;;;;;44.80;12.00;;;6.80;43.40;;;;;;5061073;28;20484;-62
2022/11/13 03:02:19;;;;;;;15.17;10.70;;;6.80;43.50;;;;;;5064195;28;21138;-62
2022/11/13 03:04:46;;;;;;;21.23;10.70;;;6.80;44.00;;;;;;5061930;28;20457;-62
2022/11/13 03:07:13;;;;;;;29.73;11.83;;;6.80;43.50;;;;;;5060123;28;20953;-61
2022/11/13 03:09:40;;;;;;;28.10;10.50;;;6.70;43.60;;;;;;5057403;28;22282;-61
2022/11/13 03:12:07;;;;;;;33.33;11.97;;;6.80;43.40;;;;;;5061135;28;20463;-61
2022/11/13 03:14:34;;;;;;;20.33;11.63;;;6.70;43.40;;;;;;5063261;28;20457;-62
2022/11/13 03:17:03;;;;;;;21.33;10.93;;;6.70;43.20;;;;;;5063646;28;20461;-60
2022/11/13 03:19:30;;;;;;;31.37;13.97;;;6.70;43.40;;;;;;5058864;28;20491;-62
2022/11/13 03:21:57;;;;;;;26.47;12.27;;;6.60;43.30;;;;;;5062602;28;20481;-61
2022/11/13 03:24:23;;;;;;;22.70;12.30;;;6.60;43.30;;;;;;5062361;28;20467;-61
2022/11/13 03:26:50;;;;;;;67.87;13.27;;;6.60;42.90;;;;;;5061814;28;20480;-61
2022/11/13 03:29:17;;;;;;;18.13;12.10;;;6.50;43.00;;;;;;5064191;28;20481;-61
2022/11/13 03:31:44;;;;;;;15.63;11.03;;;6.50;43.40;;;;;;5064740;28;20470;-63
2022/11/13 03:34:12;;;;;;;23.13;12.60;;;6.40;43.50;;;;;;5064498;28;20468;-61
2022/11/13 03:36:39;;;;;;;20.90;12.93;;;6.40;43.70;;;;;;5062858;28;20453;-62
2022/11/13 03:39:06;;;;;;;20.43;12.80;;;6.40;43.70;;;;;;5063410;28;20564;-62
2022/11/13 03:41:32;;;;;;;18.80;12.20;;;6.40;43.80;;;;;;5064683;28;20473;-62
2022/11/13 03:43:59;;;;;;;17.40;10.73;;;6.40;43.80;;;;;;5063067;28;21276;-66
2022/11/13 03:46:26;;;;;;;26.97;12.57;;;6.40;44.00;;;;;;5062570;28;20520;-61
2022/11/13 03:48:53;;;;;;;19.07;12.73;;;6.40;43.60;;;;;;5061889;28;21164;-63
2022/11/13 03:51:21;;;;;;;20.77;12.70;;;6.40;43.40;;;;;;5063647;28;20468;-62
2022/11/13 03:53:48;;;;;;;26.80;12.33;;;6.40;43.30;;;;;;5064157;28;20840;-62
2022/11/13 03:56:14;;;;;;;19.97;12.80;;;6.30;43.40;;;;;;5061243;28;20833;-62
2022/11/13 03:58:41;;;;;;;22.93;12.27;;;6.30;43.70;;;;;;5068827;28;21161;-61
2022/11/13 04:01:08;;;;;;;26.50;12.90;;;6.30;43.80;;;;;;5065900;28;20898;-62
2022/11/13 04:03:35;;;;;;;39.20;13.37;;;6.30;43.70;;;;;;5059755;28;20825;-63
2022/11/13 04:06:02;;;;;;;23.07;13.53;;;6.40;43.80;;;;;;5063575;28;20539;-63
2022/11/13 04:08:30;;;;;;;19.50;12.67;;;6.30;43.60;;;;;;5060252;28;20464;-63
2022/11/13 04:11:06;;;;;;;25.30;12.40;;;6.30;43.60;;;;;;5061133;28;20466;-64
2022/11/13 04:13:33;;;;;;;19.33;12.70;;;6.40;43.70;;;;;;5064162;28;20452;-64
2022/11/13 04:16:00;;;;;;;20.80;12.80;;;6.40;43.30;;;;;;5061020;28;20882;-61
2022/11/13 04:18:26;;;;;;;22.57;12.90;;;6.40;43.30;;;;;;5059276;28;20469;-62
2022/11/13 04:20:59;;;;;;;21.80;12.50;;;6.40;43.30;;;;;;5057638;28;21044;-62
2022/11/13 04:23:25;;;;;;;27.50;12.80;;;6.40;43.10;;;;;;5059748;28;20981;-61
2022/11/13 04:25:54;;;;;;;23.73;13.33;;;6.40;42.90;;;;;;5061836;28;20468;-62
2022/11/13 04:28:21;;;;;;;26.70;12.53;;;6.40;42.90;;;;;;5053253;28;20461;-62
2022/11/13 04:30:48;;;;;;;18.57;12.20;;;6.40;42.70;;;;;;5056252;28;20476;-61
2022/11/13 04:33:14;;;;;;;24.17;13.00;;;6.40;42.50;;;;;;5052019;28;20454;-62
2022/11/13 04:35:44;;;;;;;20.83;13.93;;;6.40;42.60;;;;;;5060629;28;20490;-63
2022/11/13 04:38:11;;;;;;;21.77;13.17;;;6.30;42.50;;;;;;5060846;28;20841;-61
2022/11/13 04:40:38;;;;;;;21.90;12.70;;;6.40;42.20;;;;;;5057795;28;20474;-61
2022/11/13 04:43:05;;;;;;;21.90;12.47;;;6.30;42.00;;;;;;5059662;28;20481;-62
2022/11/13 04:45:32;;;;;;;18.93;13.30;;;6.30;41.80;;;;;;5053593;28;20461;-61
2022/11/13 04:47:58;;;;;;;22.47;13.20;;;6.20;42.00;;;;;;5059099;28;22268;-61
2022/11/13 04:50:25;;;;;;;32.83;14.73;;;6.20;42.30;;;;;;5053456;28;20477;-62
2022/11/13 04:52:52;;;;;;;30.83;15.40;;;6.20;42.40;;;;;;5056793;28;20457;-62
2022/11/13 04:55:19;;;;;;;38.07;14.53;;;6.20;42.50;;;;;;5060666;28;20465;-61
2022/11/13 04:57:46;;;;;;;47.93;14.30;;;6.20;42.40;;;;;;5059888;28;20465;-62
2022/11/13 05:00:15;;;;;;;27.17;13.20;;;6.10;42.40;;;;;;5064444;28;20555;-62
2022/11/13 05:02:41;;;;;;;39.73;15.00;;;6.10;42.70;;;;;;5056702;28;20610;-62
2022/11/13 05:05:08;;;;;;;30.23;14.70;;;6.10;43.00;;;;;;5061288;28;20464;-62
2022/11/13 05:07:36;;;;;;;26.60;14.60;;;6.00;43.10;;;;;;5058754;28;20470;-61
2022/11/13 05:10:03;;;;;;;42.87;18.20;;;6.00;43.40;;;;;;5065015;28;20829;-61
2022/11/13 05:12:30;;;;;;;24.93;15.07;;;6.10;43.60;;;;;;5056566;28;20469;-62
2022/11/13 05:14:57;;;;;;;65.77;17.70;;;6.10;43.60;;;;;;5065436;28;20453;-61
2022/11/13 05:17:25;;;;;;;27.93;15.40;;;6.10;43.70;;;;;;5063236;28;20570;-61
2022/11/13 05:19:52;;;;;;;40.37;15.40;;;6.10;43.70;;;;;;5061415;28;20485;-62
2022/11/13 05:22:19;;;;;;;28.20;14.93;;;6.00;43.60;;;;;;5058689;28;20476;-64
2022/11/13 05:24:45;;;;;;;24.50;16.23;;;6.00;43.70;;;;;;5056542;28;20457;-62
2022/11/13 05:27:12;;;;;;;25.87;15.47;;;6.10;43.80;;;;;;5063363;28;20464;-61
2022/11/13 05:29:39;;;;;;;23.70;15.10;;;6.00;43.90;;;;;;5057474;28;20497;-63
2022/11/13 05:32:06;;;;;;;22.40;14.77;;;6.10;44.00;;;;;;5063690;28;20480;-61
2022/11/13 05:34:34;;;;;;;25.90;15.90;;;6.10;43.90;;;;;;5066248;28;20460;-62
2022/11/13 05:37:00;;;;;;;22.80;14.40;;;6.10;43.70;;;;;;5067583;28;20467;-62
2022/11/13 05:39:27;;;;;;;23.33;14.40;;;6.10;43.50;;;;;;5063723;28;20504;-61
2022/11/13 05:41:54;;;;;;;22.93;14.70;;;6.10;43.30;;;;;;5063095;28;20468;-62
2022/11/13 05:44:21;;;;;;;24.90;15.53;;;6.10;43.40;;;;;;5061591;28;21260;-62
2022/11/13 05:46:47;;;;;;;19.80;13.47;;;6.10;43.20;;;;;;5065634;28;20840;-62
2022/11/13 05:49:14;;;;;;;23.17;15.27;;;6.10;43.10;;;;;;5068413;28;20481;-61
2022/11/13 05:51:42;;;;;;;24.07;14.43;;;6.10;42.60;;;;;;5062697;28;20481;-62
2022/11/13 05:54:09;;;;;;;22.70;14.60;;;6.10;42.50;;;;;;5064409;28;20551;-62
2022/11/13 05:56:37;;;;;;;22.27;14.50;;;6.00;42.60;;;;;;5054171;28;20566;-61
2022/11/13 05:59:04;;;;;;;24.13;15.77;;;6.00;42.60;;;;;;5064494;28;20484;-62
2022/11/13 06:01:33;;;;;;;25.50;15.80;;;6.00;42.80;;;;;;5059044;28;20484;-62
2022/11/13 06:04:01;;;;;;;23.27;15.07;;;5.90;43.10;;;;;;5058818;28;20570;-62
2022/11/13 06:06:29;;;;;;;26.27;17.03;;;5.90;43.40;;;;;;5061640;28;20453;-61
2022/11/13 06:08:59;;;;;;;27.90;17.37;;;5.90;43.50;;;;;;5062709;28;20488;-62
2022/11/13 06:11:28;;;;;;;24.37;15.50;;;5.80;43.50;;;;;;5064274;28;20461;-64
2022/11/13 06:13:56;;;;;;;27.23;15.97;;;5.80;43.80;;;;;;5063519;28;20457;-61
2022/11/13 06:16:24;;;;;;;30.07;17.30;;;5.80;44.00;;;;;;5061959;28;20836;-61
2022/11/13 06:18:55;;;;;;;29.63;19.37;;;5.90;44.20;;;;;;5060103;28;20474;-61
2022/11/13 06:21:24;;;;;;;26.63;16.30;;;5.90;44.30;;;;;;5059163;28;20461;-61
2022/11/13 06:23:51;;;;;;;26.63;16.00;;;5.90;44.00;;;;;;5063833;28;20953;-62
2022/11/13 06:26:21;;;;;;;27.97;16.90;;;6.00;43.80;;;;;;5064567;28;20469;-61
2022/11/13 06:28:48;;;;;;;29.07;17.93;;;6.00;43.90;;;;;;5062755;28;20479;-62
2022/11/13 06:31:18;;;;;;;26.33;16.80;;;6.00;43.80;;;;;;5057756;28;20501;-63
2022/11/13 06:33:45;;;;;;;28.40;17.93;;;5.90;43.70;;;;;;5063856;28;20449;-63
2022/11/13 06:36:14;;;;;;;33.07;17.90;;;6.00;43.80;;;;;;5063956;28;20532;-61
2022/11/13 06:38:42;;;;;;;29.33;18.20;;;6.00;43.80;;;;;;5061875;28;20456;-63
2022/11/13 06:41:11;;;;;;;30.93;15.20;;;6.00;43.70;;;;;;5062596;28;20457;-63
2022/11/13 06:43:39;;;;;;;27.33;16.90;;;6.10;43.70;;;;;;5064098;28;20488;-63
2022/11/13 06:46:07;;;;;;;34.33;18.63;;;6.10;43.60;;;;;;5065022;28;20465;-62
2022/11/13 06:48:34;;;;;;;30.90;17.60;;;6.10;43.20;;;;;;5066752;28;20460;-61
2022/11/13 06:51:02;;;;;;;30.90;18.80;;;6.20;43.20;;;;;;5062829;28;20957;-61
2022/11/13 06:53:30;;;;;;;26.50;16.63;;;6.20;43.20;;;;;;5055992;28;20907;-63
2022/11/13 06:55:57;;;;;;;24.40;16.10;;;6.20;43.00;;;;;;5065245;28;20469;-61
2022/11/13 06:58:24;;;;;;;23.57;14.50;;;6.20;42.90;;;;;;5063795;28;20457;-61
2022/11/13 07:00:53;;;;;;;27.67;16.90;;;6.20;42.70;;;;;;5063560;28;20542;-61
2022/11/13 07:03:21;;;;;;;27.90;16.80;;;6.20;42.80;;;;;;5063476;28;20851;-61
2022/11/13 07:05:48;;;;;;;24.90;15.60;;;6.20;42.40;;;;;;5063870;28;20461;-61
2022/11/13 07:08:16;;;;;;;28.20;15.63;;;6.20;42.50;;;;;;5066559;28;20979;-64
2022/11/13 07:10:43;;;;;;;23.30;15.00;;;6.20;42.30;;;;;;5064918;28;20481;-62
2022/11/13 07:13:10;;;;;;;24.70;15.30;;;6.20;42.30;;;;;;5053777;28;20454;-61
2022/11/13 07:15:38;;;;;;;27.10;16.30;;;6.20;42.40;;;;;;5065839;28;20527;-62
2022/11/13 07:18:07;;;;;;;26.47;16.53;;;6.20;42.60;;;;;;5062752;28;20457;-61
2022/11/13 07:20:35;;;;;;;26.93;15.03;;;6.20;42.60;;;;;;5072313;28;20488;-61
2022/11/13 07:23:03;;;;;;;25.70;16.93;;;6.20;42.60;;;;;;5059383;28;20477;-62
2022/11/13 07:25:31;;;;;;;28.63;17.40;;;6.30;42.60;;;;;;5060583;28;20464;-61
2022/11/13 07:27:58;;;;;;;25.47;15.97;;;6.30;42.60;;;;;;5057465;28;21135;-61
2022/11/13 07:30:25;;;;;;;21.57;14.70;;;6.40;42.30;;;;;;5062760;28;20843;-63
2022/11/13 07:32:52;;;;;;;19.80;13.17;;;6.40;42.10;;;;;;5063836;28;20462;-61
2022/11/13 07:35:20;;;;;;;20.83;12.23;;;6.40;41.70;;;;;;5068878;28;20461;-62
2022/11/13 07:37:47;;;;;;;22.43;13.53;;;6.30;41.70;;;;;;5060228;28;20464;-66
2022/11/13 07:40:14;;;;;;;20.10;12.60;;;6.40;41.90;;;;;;5057952;28;20477;-62
2022/11/13 07:42:40;;;;;;;21.13;14.10;;;6.40;41.80;;;;;;5053717;28;20521;-61
2022/11/13 07:45:08;;;;;;;24.33;14.00;;;6.40;41.60;;;;;;5061732;28;20517;-61
2022/11/13 07:47:35;;;;;;;20.57;13.30;;;6.40;41.30;;;;;;5059641;28;20461;-61
2022/11/13 07:50:01;;;;;;;21.60;13.50;;;6.40;41.20;;;;;;5065451;28;20820;-62
2022/11/13 07:52:29;;;;;;;21.10;13.63;;;6.40;41.20;;;;;;5060868;28;20461;-61
2022/11/13 07:54:56;;;;;;;24.47;13.30;;;6.40;41.20;;;;;;5059303;28;20463;-61
2022/11/13 07:57:23;;;;;;;22.87;14.40;;;6.50;40.90;;;;;;5057462;28;20450;-63
2022/11/13 07:59:50;;;;;;;21.30;13.30;;;6.40;40.70;;;;;;5055980;28;20493;-61
2022/11/13 08:02:16;;;;;;;23.47;13.73;;;6.40;39.90;;;;;;5061511;28;20473;-61
2022/11/13 08:04:43;;;;;;;20.47;13.20;;;6.40;40.10;;;;;;5063815;28;20457;-63
2022/11/13 08:07:11;;;;;;;25.57;14.83;;;6.40;40.10;;;;;;5060597;28;20466;-61
2022/11/13 08:09:39;;;;;;;21.43;13.43;;;6.40;40.10;;;;;;5063842;28;20901;-63
2022/11/13 08:12:06;;;;;;;24.10;14.80;;;6.40;40.30;;;;;;5058906;28;20465;-62
2022/11/13 08:14:33;;;;;;;21.43;14.50;;;6.30;40.50;;;;;;5059416;28;20464;-62
2022/11/13 08:17:00;;;;;;;22.77;14.37;;;6.30;40.60;;;;;;5059372;28;20469;-62
2022/11/13 08:19:26;;;;;;;22.40;15.27;;;6.30;40.60;;;;;;5056510;28;20554;-62
2022/11/13 08:21:53;;;;;;;21.10;14.10;;;6.30;40.80;;;;;;5053116;28;20457;-62
2022/11/13 08:24:20;;;;;;;24.20;13.77;;;6.30;40.70;;;;;;5058178;28;20453;-62
2022/11/13 08:26:48;;;;;;;24.20;15.30;;;6.30;40.70;;;;;;5061356;28;20465;-62
2022/11/13 08:29:15;;;;;;;25.00;14.33;;;6.30;40.70;;;;;;5062354;28;20468;-62
2022/11/13 08:31:41;;;;;;;24.50;14.40;;;6.40;40.20;;;;;;5053370;28;20477;-62
2022/11/13 08:34:08;;;;;;;25.40;15.33;;;6.40;40.20;;;;;;5056893;28;20460;-62
2022/11/13 08:36:35;;;;;;;27.23;16.70;;;6.40;40.60;;;;;;5055764;28;21222;-61
2022/11/13 08:39:02;;;;;;;24.70;15.70;;;6.50;40.60;;;;;;5063645;28;20993;-63
2022/11/13 08:41:28;;;;;;;27.00;15.87;;;6.50;40.40;;;;;;5061997;28;20457;-62
2022/11/13 08:43:56;;;;;;;23.97;13.80;;;6.50;40.30;;;;;;5063223;28;20481;-62
2022/11/13 08:46:23;;;;;;;23.70;14.77;;;6.50;39.90;;;;;;5064009;28;20463;-61
2022/11/13 08:48:50;;;;;;;23.80;15.70;;;6.50;39.80;;;;;;5067712;28;20481;-61
2022/11/13 08:51:17;;;;;;;25.63;15.17;;;6.50;39.30;;;;;;5068033;28;20457;-63
2022/11/13 08:53:43;;;;;;;23.93;15.43;;;6.40;39.20;;;;;;5061361;28;20461;-62
2022/11/13 08:56:11;;;;;;;25.43;17.20;;;6.40;39.20;;;;;;5064080;28;20464;-62
2022/11/13 08:58:38;;;;;;;23.20;14.37;;;6.40;39.60;;;;;;5062894;28;20483;-62
2022/11/13 09:01:06;;;;;;;24.43;15.63;;;6.40;39.70;;;;;;5054740;28;20879;-62
2022/11/13 09:03:34;;;;;;;21.17;14.23;;;6.40;39.80;;;;;;5060870;28;20476;-63
2022/11/13 09:06:05;;;;;;;22.83;14.20;;;6.40;39.90;;;;;;5058338;28;20465;-61
2022/11/13 09:08:32;;;;;;;22.50;13.90;;;6.40;39.90;;;;;;5056083;28;20514;-61
2022/11/13 09:11:03;;;;;;;24.00;16.00;;;6.50;39.70;;;;;;5057425;28;20461;-62
2022/11/13 09:13:30;;;;;;;23.63;16.00;;;6.50;39.80;;;;;;5061131;28;20515;-62
2022/11/13 09:15:58;;;;;;;24.73;16.60;;;6.50;39.90;;;;;;5063174;28;20457;-61
2022/11/13 09:18:27;;;;;;;23.77;16.47;;;6.60;40.10;;;;;;5069211;28;20468;-62
2022/11/13 09:20:54;;;;;;;23.40;15.30;;;6.70;40.30;;;;;;5060624;28;20481;-62
2022/11/13 09:23:21;;;;;;;21.67;15.40;;;6.80;39.80;;;;;;5062018;28;20640;-62
2022/11/13 09:25:48;;;;;;;31.73;20.67;;;6.90;39.90;;;;;;5067255;28;20460;-62
2022/11/13 09:28:15;;;;;;;21.20;14.43;;;7.00;39.80;;;;;;5057858;28;20484;-61
2022/11/13 09:30:42;;;;;;;24.80;15.80;;;7.10;39.10;;;;;;5058497;28;20485;-62
2022/11/13 09:33:14;;;;;;;23.03;15.07;;;7.20;39.00;;;;;;5060914;28;20531;-62
2022/11/13 09:35:43;;;;;;;21.30;14.27;;;7.30;38.50;;;;;;5058377;28;20993;-68
2022/11/13 09:38:12;;;;;;;21.10;14.80;;;7.30;38.40;;;;;;5061344;28;20461;-61
2022/11/13 09:40:43;;;;;;;21.07;14.20;;;7.20;38.20;;;;;;5059037;28;21038;-62
2022/11/13 09:43:22;;;;;;;23.03;15.17;;;7.30;37.80;;;;;;5054525;28;20485;-62
2022/11/13 09:45:51;;;;;;;23.57;15.20;;;7.30;37.90;;;;;;5057503;28;20483;-61
2022/11/13 09:48:26;;;;;;;21.23;15.03;;;7.30;38.00;;;;;;5059759;28;20845;-61
2022/11/13 09:50:55;;;;;;;24.47;16.27;;;7.30;38.20;;;;;;5060878;28;20997;-62
2022/11/13 09:53:22;;;;;;;20.00;14.50;;;7.40;38.00;;;;;;5062201;28;20838;-62
2022/11/13 09:55:57;;;;;;;21.00;14.60;;;7.50;38.10;;;;;;5068988;28;20465;-63
2022/11/13 09:58:36;;;;;;;18.60;13.87;;;7.50;37.80;;;;;;5067033;28;20452;-63
2022/11/13 10:01:04;;;;;;;19.30;13.30;;;7.60;37.50;;;;;;5063747;28;20465;-62
2022/11/13 10:03:39;;;;;;;18.50;12.37;;;7.70;37.00;;;;;;5067629;28;20472;-62
2022/11/13 10:06:16;;;;;;;17.87;12.13;;;7.70;35.50;;;;;;5067495;28;20998;-62
2022/11/13 10:08:53;;;;;;;20.57;14.23;;;7.60;35.10;;;;;;5068392;28;20464;-61
2022/11/13 10:11:30;;;;;;;16.50;11.97;;;7.60;35.40;;;;;;5064542;28;20490;-62
2022/11/13 10:14:01;;;;;;;17.90;13.10;;;7.70;36.10;;;;;;5063895;28;20508;-62
2022/11/13 10:16:32;;;;;;;18.33;13.43;;;7.80;35.40;;;;;;5067751;28;20854;-62
2022/11/13 10:19:07;;;;;;;19.40;13.13;;;7.80;35.10;;;;;;5067936;28;20477;-62
2022/11/13 10:21:40;;;;;;;16.87;12.93;;;7.90;35.20;;;;;;5070900;28;20456;-64
2022/11/13 10:24:22;;;;;;;18.20;12.70;;;8.10;35.20;;;;;;5066338;28;21014;-61
2022/11/13 10:26:48;;;;;;;16.97;12.27;;;8.20;35.00;;;;;;5063473;28;20979;-61
2022/11/13 10:29:18;;;;;;;18.20;12.63;;;8.40;34.80;;;;;;5067916;28;20484;-62
2022/11/13 10:31:46;;;;;;;18.10;12.83;;;8.60;34.50;;;;;;5066684;28;20465;-61
2022/11/13 10:34:14;;;;;;;19.87;13.97;;;8.70;34.10;;;;;;5063622;28;20461;-62
2022/11/13 10:36:54;;;;;;;18.87;13.27;;;8.70;34.10;;;;;;5066414;28;20875;-63
2022/11/13 10:39:21;;;;;;;19.07;13.50;;;8.70;34.10;;;;;;5067445;28;20488;-62
2022/11/13 10:41:49;;;;;;;19.60;14.80;;;8.70;34.10;;;;;;5067783;28;20461;-62
2022/11/13 10:44:27;;;;;;;17.97;14.57;;;8.80;33.60;;;;;;5066716;28;20477;-61
2022/11/13 10:47:05;;;;;;;19.63;14.00;;;8.70;33.00;;;;;;5071330;28;20948;-62
2022/11/13 10:49:32;;;;;;;20.23;14.10;;;8.60;32.80;;;;;;5061221;28;21038;-62
2022/11/13 10:52:02;;;;;;;22.43;16.03;;;8.70;33.70;;;;;;5064731;28;20453;-62
2022/11/13 10:54:30;;;;;;;23.00;14.60;;;8.70;32.80;;;;;;5064581;28;20889;-62
2022/11/13 10:56:59;;;;;;;19.07;14.37;;;8.70;32.90;;;;;;5065427;28;20987;-61
2022/11/13 10:59:36;;;;;;;20.97;13.97;;;8.90;33.20;;;;;;5066670;28;20477;-61
2022/11/13 11:02:15;;;;;;;20.30;15.27;;;9.10;32.80;;;;;;5064692;28;20495;-63
2022/11/13 11:04:42;;;;;;;19.90;13.60;;;9.30;33.00;;;;;;5061579;28;20496;-62
2022/11/13 11:07:15;;;;;;;17.80;13.30;;;9.60;31.80;;;;;;5062290;28;20457;-62
2022/11/13 11:09:43;;;;;;;19.00;14.60;;;9.70;30.40;;;;;;5054410;28;20855;-62
2022/11/13 11:12:17;;;;;;;18.20;14.77;;;9.80;30.80;;;;;;5052991;28;20473;-63
2022/11/13 11:15:10;;;;;;;19.20;13.33;;;10.20;31.60;;;;;;5064177;28;20460;-62
2022/11/13 11:17:42;;;;;;;24.17;13.70;;;12.30;31.30;;;;;;5066393;28;20495;-62
2022/11/13 11:20:21;;;;;;;16.00;12.70;;;14.20;25.10;;;;;;5065409;28;20481;-62
2022/11/13 11:22:53;;;;;;;18.10;14.03;;;15.70;20.60;;;;;;5055355;28;20463;-64
2022/11/13 11:25:29;;;;;;;18.20;13.60;;;16.10;18.30;;;;;;5066155;28;20461;-63
2022/11/13 11:28:02;;;;;;;16.63;13.10;;;17.00;16.60;;;;;;5064216;28;20460;-63
2022/11/13 11:30:34;;;;;;;20.30;12.50;;;18.20;14.40;;;;;;5059003;28;20485;-62
2022/11/13 11:33:08;;;;;;;14.83;11.73;;;19.10;12.20;;;;;;5054033;28;20458;-64
2022/11/13 11:35:41;;;;;;;15.13;12.83;;;19.80;9.50;;;;;;5061916;28;20956;-64
2022/11/13 11:38:19;;;;;;;13.07;11.50;;;20.40;9.40;;;;;;5058801;28;20926;-64
2022/11/13 11:40:50;;;;;;;14.20;12.70;;;20.90;8.20;;;;;;5063703;28;20984;-62
2022/11/13 11:43:21;;;;;;;13.00;11.60;;;21.10;6.70;;;;;;5061828;28;20552;-62
2022/11/13 11:45:48;;;;;;;15.87;12.83;;;20.30;6.30;;;;;;5063448;28;20483;-62
2022/11/13 11:48:17;;;;;;;14.33;11.43;;;20.00;6.90;;;;;;5061780;28;20449;-64
2022/11/13 11:50:50;;;;;;;11.77;10.20;;;19.40;7.60;;;;;;5062791;28;20478;-63
2022/11/13 11:53:34;;;;;;;11.60;10.20;;;19.10;7.50;;;;;;5051448;28;20455;-63
2022/11/13 11:56:15;;;;;;;13.33;11.50;;;19.20;8.00;;;;;;5056202;28;20453;-62
2022/11/13 11:59:00;;;;;;;14.20;11.00;;;19.50;7.50;;;;;;5065009;28;20827;-63
2022/11/13 12:01:37;;;;;;;15.00;11.97;;;19.50;7.20;;;;;;5061240;28;20477;-62
2022/11/13 12:04:25;;;;;;;12.70;10.77;;;19.30;7.20;;;;;;5066158;28;20489;-64
2022/11/13 12:07:13;;;;;;;12.77;10.40;;;18.90;7.70;;;;;;5054324;28;20468;-62
2022/11/13 12:09:49;;;;;;;12.07;9.27;;;18.20;7.40;;;;;;5060134;28;20896;-64
2022/11/13 12:12:25;;;;;;;11.07;9.00;;;17.50;8.80;;;;;;5061524;28;20465;-62
2022/11/13 12:15:01;;;;;;;12.30;10.37;;;17.20;9.80;;;;;;5062217;28;20449;-64
2022/11/13 12:17:46;;;;;;;13.27;10.53;;;17.10;10.00;;;;;;5061116;28;20472;-62
2022/11/13 12:20:24;;;;;;;12.60;10.70;;;16.90;10.80;;;;;;5064392;28;20484;-62
2022/11/13 12:22:59;;;;;;;13.43;10.33;;;16.90;10.80;;;;;;5059576;28;20458;-63
2022/11/13 12:25:33;;;;;;;12.17;10.20;;;16.80;11.20;;;;;;5061545;28;20491;-62
2022/11/13 12:28:10;;;;;;;12.10;10.20;;;16.90;11.20;;;;;;5059552;28;20462;-61
2022/11/13 12:30:46;;;;;;;12.13;9.83;;;16.80;11.00;;;;;;5053365;28;20812;-61
2022/11/13 12:33:23;;;;;;;13.43;10.67;;;16.40;11.40;;;;;;5062215;28;20789;-62
2022/11/13 12:35:53;;;;;;;11.20;9.50;;;15.90;11.80;;;;;;5058831;28;20464;-64
2022/11/13 12:38:30;;;;;;;13.43;10.30;;;15.30;12.80;;;;;;5061974;28;20461;-62
2022/11/13 12:41:05;;;;;;;15.40;10.03;;;14.90;13.70;;;;;;5065835;28;20470;-62
2022/11/13 12:43:53;;;;;;;11.30;9.77;;;14.50;14.60;;;;;;5052427;28;20481;-61
2022/11/13 12:46:21;;;;;;;13.30;10.53;;;14.30;15.30;;;;;;5056456;28;20458;-62